sensor_id;sensor_type;location;lat;lon;timestamp;P1;durP1;ratioP1;P2;durP2;ratioP2
1753;SDS011;58380;48.312;9.246;2023-07-28T07:07:38;9.50;;;5.43;;
1753;SDS011;58380;48.312;9.246;2023-07-28T07:10:05;9.40;;;4.90;;
1753;SDS011;58380;48.312;9.246;2023-07-28T07:12:31;5.78;;;4.55;;
1753;SDS011;58380;48.312;9.246;2023-07-28T07:14:57;7.97;;;4.03;;
1753;SDS011;58380;48.312;9.246;2023-07-28T07:17:22;5.60;;;3.90;;
1753;SDS011;58380;48.312;9.246;2023-07-28T07:19:48;7.50;;;3.90;;
1753;SDS011;58380;48.312;9.246;2023-07-28T07:22:13;6.28;;;3.45;;
1753;SDS011;58380;48.312;9.246;2023-07-28T07:24:39;5.27;;;3.27;;
1753;SDS011;58380;48.312;9.246;2023-07-28T07:27:04;10.63;;;5.63;;
1753;SDS011;58380;48.312;9.246;2023-07-28T07:29:30;6.70;;;3.80;;
1753;SDS011;58380;48.312;9.246;2023-07-28T07:31:56;5.38;;;3.60;;
1753;SDS011;58380;48.312;9.246;2023-07-28T07:34:22;9.82;;;4.55;;
1753;SDS011;58380;48.312;9.246;2023-07-28T07:36:48;4.40;;;2.95;;
1753;SDS011;58380;48.312;9.246;2023-07-28T07:39:14;5.43;;;2.80;;
1753;SDS011;58380;48.312;9.246;2023-07-28T07:41:40;8.88;;;5.15;;
1753;SDS011;58380;48.312;9.246;2023-07-28T07:44:05;7.95;;;4.30;;
1753;SDS011;58380;48.312;9.246;2023-07-28T07:46:31;5.05;;;3.10;;
1753;SDS011;58380;48.312;9.246;2023-07-28T07:48:57;5.80;;;3.28;;
1753;SDS011;58380;48.312;9.246;2023-07-28T07:51:22;6.97;;;3.30;;
1753;SDS011;58380;48.312;9.246;2023-07-28T07:53:48;7.78;;;3.47;;
1753;SDS011;58380;48.312;9.246;2023-07-28T07:56:13;6.18;;;3.60;;
1753;SDS011;58380;48.312;9.246;2023-07-28T07:58:39;7.00;;;3.88;;
1753;SDS011;58380;48.312;9.246;2023-07-28T08:01:05;5.80;;;3.97;;
1753;SDS011;58380;48.312;9.246;2023-07-28T08:03:30;6.68;;;3.88;;
1753;SDS011;58380;48.312;9.246;2023-07-28T08:06:01;5.53;;;3.20;;
1753;SDS011;58380;48.312;9.246;2023-07-28T08:08:26;5.13;;;3.53;;
1753;SDS011;58380;48.312;9.246;2023-07-28T08:10:52;7.95;;;3.22;;
1753;SDS011;58380;48.312;9.246;2023-07-28T08:13:17;8.15;;;3.88;;
1753;SDS011;58380;48.312;9.246;2023-07-28T08:15:43;5.13;;;3.65;;
1753;SDS011;58380;48.312;9.246;2023-07-28T08:18:13;7.10;;;3.42;;
1753;SDS011;58380;48.312;9.246;2023-07-28T08:20:39;8.57;;;3.33;;
1753;SDS011;58380;48.312;9.246;2023-07-28T08:23:05;7.03;;;2.90;;
1753;SDS011;58380;48.312;9.246;2023-07-28T08:25:31;4.35;;;2.60;;
1753;SDS011;58380;48.312;9.246;2023-07-28T08:27:56;8.35;;;3.25;;
1753;SDS011;58380;48.312;9.246;2023-07-28T08:30:21;7.43;;;3.08;;
1753;SDS011;58380;48.312;9.246;2023-07-28T08:32:47;6.25;;;2.90;;
1753;SDS011;58380;48.312;9.246;2023-07-28T08:35:13;6.15;;;2.78;;
1753;SDS011;58380;48.312;9.246;2023-07-28T08:37:39;4.90;;;2.85;;
1753;SDS011;58380;48.312;9.246;2023-07-28T08:42:31;6.50;;;3.08;;
1753;SDS011;58380;48.312;9.246;2023-07-28T08:45:03;4.63;;;2.80;;
1753;SDS011;58380;48.312;9.246;2023-07-28T08:47:30;6.97;;;2.95;;
1753;SDS011;58380;48.312;9.246;2023-07-28T08:49:56;7.50;;;2.65;;
1753;SDS011;58380;48.312;9.246;2023-07-28T08:52:22;4.85;;;2.60;;
1753;SDS011;58380;48.312;9.246;2023-07-28T08:54:49;5.70;;;2.63;;
1753;SDS011;58380;48.312;9.246;2023-07-28T08:57:15;3.47;;;2.28;;
1753;SDS011;58380;48.312;9.246;2023-07-28T08:59:40;3.75;;;2.10;;
1753;SDS011;58380;48.312;9.246;2023-07-28T09:02:13;4.85;;;1.90;;
1753;SDS011;58380;48.312;9.246;2023-07-28T09:04:41;4.35;;;2.10;;
1753;SDS011;58380;48.312;9.246;2023-07-28T09:07:11;3.53;;;1.80;;
1753;SDS011;58380;48.312;9.246;2023-07-28T09:09:37;2.72;;;1.80;;
1753;SDS011;58380;48.312;9.246;2023-07-28T09:14:29;4.45;;;1.60;;
1753;SDS011;58380;48.312;9.246;2023-07-28T09:16:56;4.63;;;2.00;;
1753;SDS011;58380;48.312;9.246;2023-07-28T09:19:33;7.40;;;2.17;;
1753;SDS011;58380;48.312;9.246;2023-07-28T09:21:59;3.47;;;2.03;;
1753;SDS011;58380;48.312;9.246;2023-07-28T09:24:30;4.22;;;1.98;;
1753;SDS011;58380;48.312;9.246;2023-07-28T09:26:57;5.15;;;1.90;;
1753;SDS011;58380;48.312;9.246;2023-07-28T09:29:24;3.78;;;2.20;;
1753;SDS011;58380;48.312;9.246;2023-07-28T09:31:52;3.35;;;2.13;;
1753;SDS011;58380;48.312;9.246;2023-07-28T09:34:28;3.65;;;2.08;;
1753;SDS011;58380;48.312;9.246;2023-07-28T09:36:54;4.55;;;2.08;;
1753;SDS011;58380;48.312;9.246;2023-07-28T09:39:24;3.78;;;2.40;;
1753;SDS011;58380;48.312;9.246;2023-07-28T09:41:50;3.25;;;1.98;;
1753;SDS011;58380;48.312;9.246;2023-07-28T09:44:16;3.83;;;2.35;;
1753;SDS011;58380;48.312;9.246;2023-07-28T09:52:03;3.53;;;2.15;;
1753;SDS011;58380;48.312;9.246;2023-07-28T09:54:34;3.55;;;1.92;;
1753;SDS011;58380;48.312;9.246;2023-07-28T09:57:05;4.32;;;2.00;;
1753;SDS011;58380;48.312;9.246;2023-07-28T09:59:47;2.78;;;1.80;;
1753;SDS011;58380;48.312;9.246;2023-07-28T10:02:14;3.95;;;2.05;;
1753;SDS011;58380;48.312;9.246;2023-07-28T10:04:41;3.45;;;2.15;;
1753;SDS011;58380;48.312;9.246;2023-07-28T10:07:07;4.47;;;2.00;;
1753;SDS011;58380;48.312;9.246;2023-07-28T10:09:34;3.85;;;2.08;;
1753;SDS011;58380;48.312;9.246;2023-07-28T10:12:02;4.22;;;2.50;;
1753;SDS011;58380;48.312;9.246;2023-07-28T10:14:29;4.72;;;2.17;;
1753;SDS011;58380;48.312;9.246;2023-07-28T10:16:59;4.22;;;2.33;;
1753;SDS011;58380;48.312;9.246;2023-07-28T10:19:29;4.70;;;2.38;;
1753;SDS011;58380;48.312;9.246;2023-07-28T10:21:59;4.85;;;2.05;;
1753;SDS011;58380;48.312;9.246;2023-07-28T10:27:28;3.85;;;2.40;;
1753;SDS011;58380;48.312;9.246;2023-07-28T10:29:59;4.65;;;2.10;;
1753;SDS011;58380;48.312;9.246;2023-07-28T10:32:41;4.40;;;2.33;;
1753;SDS011;58380;48.312;9.246;2023-07-28T10:37:38;4.00;;;2.50;;
1753;SDS011;58380;48.312;9.246;2023-07-28T10:41:04;4.15;;;2.17;;
1753;SDS011;58380;48.312;9.246;2023-07-28T10:43:04;3.53;;;2.30;;
1753;SDS011;58380;48.312;9.246;2023-07-28T10:47:57;3.33;;;2.28;;
1753;SDS011;58380;48.312;9.246;2023-07-28T10:50:31;8.85;;;2.10;;
1753;SDS011;58380;48.312;9.246;2023-07-28T10:52:57;3.50;;;2.13;;
1753;SDS011;58380;48.312;9.246;2023-07-28T10:57:51;3.47;;;1.80;;
1753;SDS011;58380;48.312;9.246;2023-07-28T11:00:20;2.80;;;1.80;;
1753;SDS011;58380;48.312;9.246;2023-07-28T11:02:47;5.55;;;1.80;;
1753;SDS011;58380;48.312;9.246;2023-07-28T11:05:20;4.40;;;1.98;;
1753;SDS011;58380;48.312;9.246;2023-07-28T11:07:47;3.33;;;1.75;;
1753;SDS011;58380;48.312;9.246;2023-07-28T11:10:19;3.50;;;2.08;;
1753;SDS011;58380;48.312;9.246;2023-07-28T11:15:14;3.70;;;2.08;;
1753;SDS011;58380;48.312;9.246;2023-07-28T11:17:41;3.95;;;2.38;;
1753;SDS011;58380;48.312;9.246;2023-07-28T11:25:24;3.40;;;1.90;;
1753;SDS011;58380;48.312;9.246;2023-07-28T11:27:53;3.70;;;2.15;;
1753;SDS011;58380;48.312;9.246;2023-07-28T11:30:22;3.42;;;1.90;;
1753;SDS011;58380;48.312;9.246;2023-07-28T11:32:50;3.28;;;2.00;;
1753;SDS011;58380;48.312;9.246;2023-07-28T11:35:18;6.78;;;2.30;;
1753;SDS011;58380;48.312;9.246;2023-07-28T11:37:49;4.30;;;2.25;;
1753;SDS011;58380;48.312;9.246;2023-07-28T11:40:18;3.38;;;2.10;;
1753;SDS011;58380;48.312;9.246;2023-07-28T11:42:50;3.78;;;2.10;;
1753;SDS011;58380;48.312;9.246;2023-07-28T11:45:19;5.53;;;1.83;;
1753;SDS011;58380;48.312;9.246;2023-07-28T11:48:05;3.05;;;1.70;;
1753;SDS011;58380;48.312;9.246;2023-07-28T11:50:36;2.47;;;1.80;;
1753;SDS011;58380;48.312;9.246;2023-07-28T11:53:04;2.75;;;1.70;;
1753;SDS011;58380;48.312;9.246;2023-07-28T11:55:31;3.75;;;2.05;;
1753;SDS011;58380;48.312;9.246;2023-07-28T11:58:00;3.30;;;1.92;;
1753;SDS011;58380;48.312;9.246;2023-07-28T12:00:32;4.32;;;2.15;;
1753;SDS011;58380;48.312;9.246;2023-07-28T12:03:14;3.40;;;1.98;;
1753;SDS011;58380;48.312;9.246;2023-07-28T12:08:38;3.22;;;1.83;;
1753;SDS011;58380;48.312;9.246;2023-07-28T12:11:11;4.00;;;2.20;;
1753;SDS011;58380;48.312;9.246;2023-07-28T12:13:49;5.25;;;2.17;;
1753;SDS011;58380;48.312;9.246;2023-07-28T12:19:05;3.03;;;2.00;;
1753;SDS011;58380;48.312;9.246;2023-07-28T12:23:56;2.83;;;1.70;;
1753;SDS011;58380;48.312;9.246;2023-07-28T12:28:47;2.85;;;1.73;;
1753;SDS011;58380;48.312;9.246;2023-07-28T12:33:38;2.90;;;1.70;;
1753;SDS011;58380;48.312;9.246;2023-07-28T12:38:29;2.88;;;2.00;;
1753;SDS011;58380;48.312;9.246;2023-07-28T12:43:20;2.85;;;2.05;;
1753;SDS011;58380;48.312;9.246;2023-07-28T12:48:11;4.00;;;2.25;;
1753;SDS011;58380;48.312;9.246;2023-07-28T12:53:02;3.97;;;2.30;;
1753;SDS011;58380;48.312;9.246;2023-07-28T12:55:28;5.10;;;2.13;;
1753;SDS011;58380;48.312;9.246;2023-07-28T13:00:19;3.38;;;2.20;;
1753;SDS011;58380;48.312;9.246;2023-07-28T13:05:13;3.25;;;2.20;;
1753;SDS011;58380;48.312;9.246;2023-07-28T13:07:40;6.18;;;1.92;;
1753;SDS011;58380;48.312;9.246;2023-07-28T13:12:35;2.72;;;1.42;;
1753;SDS011;58380;48.312;9.246;2023-07-28T13:17:26;7.97;;;2.30;;
1753;SDS011;58380;48.312;9.246;2023-07-28T13:22:17;5.78;;;2.10;;
1753;SDS011;58380;48.312;9.246;2023-07-28T13:27:08;2.72;;;1.83;;
1753;SDS011;58380;48.312;9.246;2023-07-28T13:31:59;3.40;;;1.90;;
1753;SDS011;58380;48.312;9.246;2023-07-28T13:36:54;3.60;;;2.05;;
1753;SDS011;58380;48.312;9.246;2023-07-28T13:39:32;3.10;;;2.00;;
1753;SDS011;58380;48.312;9.246;2023-07-28T13:41:58;9.63;;;3.28;;
1753;SDS011;58380;48.312;9.246;2023-07-28T13:46:49;3.78;;;1.90;;
1753;SDS011;58380;48.312;9.246;2023-07-28T13:49:14;4.47;;;2.00;;
1753;SDS011;58380;48.312;9.246;2023-07-28T13:54:05;4.60;;;2.47;;
1753;SDS011;58380;48.312;9.246;2023-07-28T13:58:56;3.42;;;2.13;;
1753;SDS011;58380;48.312;9.246;2023-07-28T14:03:46;3.88;;;2.33;;
1753;SDS011;58380;48.312;9.246;2023-07-28T14:08:37;3.28;;;2.10;;
1753;SDS011;58380;48.312;9.246;2023-07-28T14:13:28;3.17;;;2.13;;
1753;SDS011;58380;48.312;9.246;2023-07-28T14:15:54;4.60;;;2.65;;
1753;SDS011;58380;48.312;9.246;2023-07-28T14:18:20;3.83;;;2.40;;
1753;SDS011;58380;48.312;9.246;2023-07-28T14:23:21;4.93;;;2.45;;
1753;SDS011;58380;48.312;9.246;2023-07-28T14:25:52;3.83;;;2.38;;
1753;SDS011;58380;48.312;9.246;2023-07-28T14:28:18;4.35;;;2.38;;
1753;SDS011;58380;48.312;9.246;2023-07-28T14:30:45;4.78;;;2.20;;
1753;SDS011;58380;48.312;9.246;2023-07-28T14:35:42;3.47;;;2.42;;
1753;SDS011;58380;48.312;9.246;2023-07-28T14:38:10;4.75;;;2.47;;
1753;SDS011;58380;48.312;9.246;2023-07-28T14:40:37;4.05;;;2.35;;
1753;SDS011;58380;48.312;9.246;2023-07-28T14:45:28;5.25;;;2.70;;
1753;SDS011;58380;48.312;9.246;2023-07-28T14:47:55;3.05;;;2.20;;
1753;SDS011;58380;48.312;9.246;2023-07-28T14:52:47;4.53;;;2.53;;
1753;SDS011;58380;48.312;9.246;2023-07-28T14:57:38;3.55;;;2.47;;
1753;SDS011;58380;48.312;9.246;2023-07-28T15:02:30;3.40;;;2.30;;
1753;SDS011;58380;48.312;9.246;2023-07-28T15:04:58;3.25;;;2.10;;
1753;SDS011;58380;48.312;9.246;2023-07-28T15:07:23;7.70;;;2.67;;
1753;SDS011;58380;48.312;9.246;2023-07-28T15:12:15;3.92;;;2.28;;
1753;SDS011;58380;48.312;9.246;2023-07-28T15:17:06;3.83;;;2.17;;
1753;SDS011;58380;48.312;9.246;2023-07-28T15:19:31;5.32;;;2.50;;
1753;SDS011;58380;48.312;9.246;2023-07-28T15:24:22;3.20;;;1.98;;
1753;SDS011;58380;48.312;9.246;2023-07-28T15:29:15;4.90;;;2.58;;
1753;SDS011;58380;48.312;9.246;2023-07-28T15:31:41;3.20;;;2.13;;
1753;SDS011;58380;48.312;9.246;2023-07-28T15:34:06;3.40;;;2.03;;
1753;SDS011;58380;48.312;9.246;2023-07-28T15:36:32;2.97;;;1.88;;
1753;SDS011;58380;48.312;9.246;2023-07-28T15:38:57;4.57;;;2.15;;
1753;SDS011;58380;48.312;9.246;2023-07-28T15:41:24;3.03;;;1.90;;
1753;SDS011;58380;48.312;9.246;2023-07-28T15:43:50;3.00;;;2.10;;
1753;SDS011;58380;48.312;9.246;2023-07-28T15:46:21;3.03;;;1.90;;
1753;SDS011;58380;48.312;9.246;2023-07-28T15:48:48;3.67;;;1.98;;
1753;SDS011;58380;48.312;9.246;2023-07-28T15:51:13;5.25;;;1.90;;
1753;SDS011;58380;48.312;9.246;2023-07-28T15:56:05;2.70;;;1.55;;
1753;SDS011;58380;48.312;9.246;2023-07-28T15:58:32;3.38;;;1.90;;
1753;SDS011;58380;48.312;9.246;2023-07-28T16:00:57;4.85;;;2.05;;
1753;SDS011;58380;48.312;9.246;2023-07-28T16:03:23;3.83;;;1.90;;
1753;SDS011;58380;48.312;9.246;2023-07-28T16:08:14;4.45;;;2.35;;
1753;SDS011;58380;48.312;9.246;2023-07-28T16:10:39;3.05;;;1.98;;
1753;SDS011;58380;48.312;9.246;2023-07-28T16:13:05;3.47;;;1.90;;
1753;SDS011;58380;48.312;9.246;2023-07-28T16:17:56;6.53;;;2.92;;
1753;SDS011;58380;48.312;9.246;2023-07-28T16:22:46;3.42;;;1.85;;
1753;SDS011;58380;48.312;9.246;2023-07-28T16:27:37;7.82;;;5.53;;
1753;SDS011;58380;48.312;9.246;2023-07-28T16:32:30;7.50;;;5.10;;
1753;SDS011;58380;48.312;9.246;2023-07-28T16:34:56;8.63;;;5.32;;
1753;SDS011;58380;48.312;9.246;2023-07-28T16:37:22;15.82;;;8.20;;
1753;SDS011;58380;48.312;9.246;2023-07-28T16:39:48;24.83;;;13.65;;
1753;SDS011;58380;48.312;9.246;2023-07-28T16:42:16;14.60;;;7.10;;
1753;SDS011;58380;48.312;9.246;2023-07-28T16:44:41;6.28;;;3.85;;
1753;SDS011;58380;48.312;9.246;2023-07-28T16:49:32;4.40;;;3.13;;
1753;SDS011;58380;48.312;9.246;2023-07-28T16:54:24;5.45;;;2.63;;
1753;SDS011;58380;48.312;9.246;2023-07-28T16:59:15;3.70;;;2.42;;
1753;SDS011;58380;48.312;9.246;2023-07-28T17:04:06;7.65;;;5.88;;
1753;SDS011;58380;48.312;9.246;2023-07-28T17:06:31;3.70;;;2.60;;
1753;SDS011;58380;48.312;9.246;2023-07-28T17:11:22;4.13;;;3.10;;
1753;SDS011;58380;48.312;9.246;2023-07-28T17:16:13;4.32;;;2.70;;
1753;SDS011;58380;48.312;9.246;2023-07-28T17:21:04;6.72;;;2.40;;
1753;SDS011;58380;48.312;9.246;2023-07-28T17:25:54;6.45;;;2.40;;
1753;SDS011;58380;48.312;9.246;2023-07-28T17:30:45;7.13;;;2.95;;
1753;SDS011;58380;48.312;9.246;2023-07-28T17:33:11;7.35;;;3.60;;
1753;SDS011;58380;48.312;9.246;2023-07-28T17:35:36;9.75;;;3.22;;
1753;SDS011;58380;48.312;9.246;2023-07-28T17:38:02;5.75;;;2.97;;
1753;SDS011;58380;48.312;9.246;2023-07-28T17:42:53;4.55;;;2.00;;
1753;SDS011;58380;48.312;9.246;2023-07-28T17:45:18;8.55;;;5.53;;
1753;SDS011;58380;48.312;9.246;2023-07-28T17:47:44;8.15;;;4.10;;
1753;SDS011;58380;48.312;9.246;2023-07-28T17:50:09;5.63;;;2.35;;
1753;SDS011;58380;48.312;9.246;2023-07-28T17:52:36;3.95;;;2.40;;
1753;SDS011;58380;48.312;9.246;2023-07-28T17:55:01;5.30;;;2.15;;
1753;SDS011;58380;48.312;9.246;2023-07-28T17:57:27;4.80;;;1.95;;
1753;SDS011;58380;48.312;9.246;2023-07-28T17:59:52;5.28;;;1.80;;
1753;SDS011;58380;48.312;9.246;2023-07-28T18:02:18;6.80;;;3.67;;
1753;SDS011;58380;48.312;9.246;2023-07-28T18:04:43;5.18;;;2.40;;
1753;SDS011;58380;48.312;9.246;2023-07-28T18:07:09;2.83;;;1.50;;
1753;SDS011;58380;48.312;9.246;2023-07-28T18:09:34;2.38;;;1.33;;
1753;SDS011;58380;48.312;9.246;2023-07-28T18:12:00;2.47;;;1.50;;
1753;SDS011;58380;48.312;9.246;2023-07-28T18:14:25;2.42;;;1.17;;
1753;SDS011;58380;48.312;9.246;2023-07-28T18:16:50;5.88;;;2.13;;
1753;SDS011;58380;48.312;9.246;2023-07-28T18:19:16;2.85;;;1.52;;
1753;SDS011;58380;48.312;9.246;2023-07-28T18:21:41;0.88;;;0.80;;
1753;SDS011;58380;48.312;9.246;2023-07-28T18:24:07;2.22;;;1.25;;
1753;SDS011;58380;48.312;9.246;2023-07-28T18:26:32;3.85;;;1.20;;
1753;SDS011;58380;48.312;9.246;2023-07-28T18:28:58;7.45;;;3.65;;
1753;SDS011;58380;48.312;9.246;2023-07-28T18:31:23;14.27;;;7.70;;
1753;SDS011;58380;48.312;9.246;2023-07-28T18:33:48;1.15;;;0.70;;
1753;SDS011;58380;48.312;9.246;2023-07-28T18:36:14;1.85;;;1.15;;
1753;SDS011;58380;48.312;9.246;2023-07-28T18:38:40;4.70;;;3.25;;
1753;SDS011;58380;48.312;9.246;2023-07-28T18:41:06;2.17;;;1.05;;
1753;SDS011;58380;48.312;9.246;2023-07-28T18:43:33;1.60;;;0.70;;
1753;SDS011;58380;48.312;9.246;2023-07-28T18:45:59;2.38;;;1.60;;
1753;SDS011;58380;48.312;9.246;2023-07-28T18:48:24;1.58;;;0.70;;
1753;SDS011;58380;48.312;9.246;2023-07-28T18:50:50;1.10;;;0.70;;
1753;SDS011;58380;48.312;9.246;2023-07-28T18:53:15;0.95;;;0.68;;
1753;SDS011;58380;48.312;9.246;2023-07-28T18:58:07;1.45;;;0.80;;
1753;SDS011;58380;48.312;9.246;2023-07-28T19:00:32;0.98;;;0.70;;
1753;SDS011;58380;48.312;9.246;2023-07-28T19:02:59;1.17;;;0.80;;
1753;SDS011;58380;48.312;9.246;2023-07-28T19:05:25;2.92;;;0.85;;
1753;SDS011;58380;48.312;9.246;2023-07-28T19:07:50;2.17;;;0.80;;
1753;SDS011;58380;48.312;9.246;2023-07-28T19:10:16;0.57;;;0.40;;
1753;SDS011;58380;48.312;9.246;2023-07-28T19:12:42;1.02;;;0.65;;
1753;SDS011;58380;48.312;9.246;2023-07-28T19:15:07;2.55;;;0.75;;
1753;SDS011;58380;48.312;9.246;2023-07-28T19:17:34;2.92;;;0.70;;
1753;SDS011;58380;48.312;9.246;2023-07-28T19:19:59;0.85;;;0.60;;
1753;SDS011;58380;48.312;9.246;2023-07-28T19:22:25;1.20;;;0.73;;
1753;SDS011;58380;48.312;9.246;2023-07-28T19:24:50;0.65;;;0.55;;
1753;SDS011;58380;48.312;9.246;2023-07-28T19:27:17;1.25;;;0.70;;
1753;SDS011;58380;48.312;9.246;2023-07-28T19:29:43;2.55;;;0.82;;
1753;SDS011;58380;48.312;9.246;2023-07-28T19:32:08;1.50;;;0.60;;
1753;SDS011;58380;48.312;9.246;2023-07-28T19:34:34;1.05;;;0.70;;
1753;SDS011;58380;48.312;9.246;2023-07-28T19:36:59;2.50;;;0.70;;
1753;SDS011;58380;48.312;9.246;2023-07-28T19:39:25;1.35;;;0.65;;
1753;SDS011;58380;48.312;9.246;2023-07-28T19:41:50;1.73;;;0.60;;
1753;SDS011;58380;48.312;9.246;2023-07-28T19:44:16;0.88;;;0.60;;
1753;SDS011;58380;48.312;9.246;2023-07-28T19:46:41;1.92;;;0.90;;
1753;SDS011;58380;48.312;9.246;2023-07-28T19:49:07;4.70;;;0.90;;
1753;SDS011;58380;48.312;9.246;2023-07-28T19:51:32;14.63;;;1.10;;
1753;SDS011;58380;48.312;9.246;2023-07-28T19:53:58;2.75;;;0.60;;
1753;SDS011;58380;48.312;9.246;2023-07-28T19:56:27;1.17;;;0.50;;
1753;SDS011;58380;48.312;9.246;2023-07-28T19:58:54;1.50;;;0.63;;
1753;SDS011;58380;48.312;9.246;2023-07-28T20:01:21;1.35;;;0.75;;
1753;SDS011;58380;48.312;9.246;2023-07-28T20:03:49;2.35;;;0.80;;
1753;SDS011;58380;48.312;9.246;2023-07-28T20:06:15;1.30;;;0.82;;
1753;SDS011;58380;48.312;9.246;2023-07-28T20:08:40;1.13;;;0.68;;
1753;SDS011;58380;48.312;9.246;2023-07-28T20:11:06;1.58;;;0.70;;
1753;SDS011;58380;48.312;9.246;2023-07-28T20:13:31;0.85;;;0.60;;
1753;SDS011;58380;48.312;9.246;2023-07-28T20:15:57;14.90;;;1.02;;
1753;SDS011;58380;48.312;9.246;2023-07-28T20:18:22;4.63;;;1.15;;
1753;SDS011;58380;48.312;9.246;2023-07-28T20:20:47;2.63;;;0.80;;
1753;SDS011;58380;48.312;9.246;2023-07-28T20:23:15;1.00;;;0.60;;
1753;SDS011;58380;48.312;9.246;2023-07-28T20:25:43;1.48;;;1.00;;
1753;SDS011;58380;48.312;9.246;2023-07-28T20:28:09;1.08;;;0.70;;
1753;SDS011;58380;48.312;9.246;2023-07-28T20:30:35;0.88;;;0.57;;
1753;SDS011;58380;48.312;9.246;2023-07-28T20:33:00;1.30;;;0.70;;
1753;SDS011;58380;48.312;9.246;2023-07-28T20:35:28;1.25;;;0.70;;
1753;SDS011;58380;48.312;9.246;2023-07-28T20:37:53;2.20;;;0.90;;
1753;SDS011;58380;48.312;9.246;2023-07-28T20:40:19;1.67;;;1.02;;
1753;SDS011;58380;48.312;9.246;2023-07-28T20:42:45;1.48;;;0.93;;
1753;SDS011;58380;48.312;9.246;2023-07-28T20:45:11;1.58;;;1.05;;
1753;SDS011;58380;48.312;9.246;2023-07-28T20:47:37;1.48;;;0.90;;
1753;SDS011;58380;48.312;9.246;2023-07-28T20:50:05;1.13;;;0.75;;
1753;SDS011;58380;48.312;9.246;2023-07-28T20:52:31;0.77;;;0.50;;
1753;SDS011;58380;48.312;9.246;2023-07-28T20:54:57;1.65;;;0.73;;
1753;SDS011;58380;48.312;9.246;2023-07-28T20:57:23;3.67;;;0.90;;
1753;SDS011;58380;48.312;9.246;2023-07-28T20:59:49;1.70;;;1.05;;
1753;SDS011;58380;48.312;9.246;2023-07-28T21:02:14;1.95;;;1.08;;
1753;SDS011;58380;48.312;9.246;2023-07-28T21:04:39;2.05;;;1.30;;
1753;SDS011;58380;48.312;9.246;2023-07-28T21:07:05;1.90;;;1.27;;
1753;SDS011;58380;48.312;9.246;2023-07-28T21:09:32;1.55;;;1.02;;
1753;SDS011;58380;48.312;9.246;2023-07-28T21:11:59;2.05;;;1.40;;
1753;SDS011;58380;48.312;9.246;2023-07-28T21:14:24;4.90;;;1.20;;
1753;SDS011;58380;48.312;9.246;2023-07-28T21:16:50;2.78;;;1.23;;
1753;SDS011;58380;48.312;9.246;2023-07-28T21:19:15;2.60;;;1.20;;
